createdAt,value
2018-03-28T00:01:55.944Z,80.90
2018-03-28T00:03:08.647Z,81.56
2018-03-28T00:04:22.217Z,81.66
2018-03-28T00:05:18.185Z,81.56
2018-03-28T00:06:21.880Z,81.76
2018-03-28T00:07:17.174Z,82.04
2018-03-28T00:08:27.839Z,82.42
2018-03-28T00:09:39.718Z,82.51
2018-03-28T00:10:35.831Z,83.09
2018-03-28T00:11:56.216Z,82.42
2018-03-28T00:12:53.152Z,82.70
2018-03-28T00:13:52.338Z,82.80
2018-03-28T00:15:16.002Z,83.65
2018-03-28T00:16:17.850Z,83.47
2018-03-28T00:17:14.683Z,83.65
2018-03-28T00:18:14.795Z,83.28
2018-03-28T00:19:29.136Z,83.47
2018-03-28T00:20:27.606Z,83.47
2018-03-28T00:21:32.841Z,83.37
2018-03-28T00:22:44.009Z,83.37
2018-03-28T00:23:48.622Z,82.99
2018-03-28T00:25:00.403Z,83.56
2018-03-28T00:26:07.685Z,83.37
2018-03-28T00:27:22.058Z,83.94
2018-03-28T00:28:09.853Z,83.56
2018-03-28T00:29:33.718Z,83.56
2018-03-28T00:30:18.362Z,83.56
2018-03-28T00:31:30.038Z,83.56
2018-03-28T00:32:36.087Z,83.75
2018-03-28T00:33:28.525Z,83.94
2018-03-28T00:34:46.129Z,83.75
2018-03-28T00:36:56.185Z,83.75
2018-03-28T00:40:12.590Z,84.52
2018-03-28T00:41:13.520Z,84.33
2018-03-28T00:42:24.077Z,84.04
2018-03-28T00:43:26.233Z,83.94
2018-03-28T00:44:33.098Z,84.04
2018-03-28T00:45:40.277Z,84.13
2018-03-28T00:46:41.414Z,84.23
2018-03-28T00:47:42.847Z,84.52
2018-03-28T00:48:54.733Z,84.33
2018-03-28T00:51:00.174Z,84.33
2018-03-28T00:52:18.921Z,84.42
2018-03-28T00:53:14.935Z,84.47
2018-03-28T00:54:26.410Z,84.70
2018-03-28T00:55:33.585Z,85.24
2018-03-28T00:56:34.821Z,85.37
2018-03-28T00:57:36.466Z,84.80
2018-03-28T01:00:53.904Z,84.52
2018-03-28T01:02:03.528Z,84.61
2018-03-28T01:03:08.247Z,84.42
2018-03-28T01:04:15.420Z,84.85
2018-03-28T01:05:19.419Z,84.42
2018-03-28T01:06:34.587Z,84.33
2018-03-28T01:07:33.362Z,84.61
2018-03-28T01:08:33.676Z,85.08
2018-03-28T01:10:41.778Z,84.42
2018-03-28T01:11:50.695Z,85.08
2018-03-28T01:12:47.428Z,84.85
2018-03-28T01:15:06.077Z,84.80
2018-03-28T01:16:08.234Z,85.47
2018-03-28T01:17:24.727Z,84.95
2018-03-28T01:18:25.350Z,85.42
2018-03-28T01:19:27.301Z,85.33
2018-03-28T01:21:40.216Z,84.70
2018-03-28T01:22:51.693Z,85.28
2018-03-28T01:24:05.833Z,85.47
2018-03-28T01:24:54.166Z,85.37
2018-03-28T01:26:00.931Z,85.37
2018-03-28T01:27:06.774Z,84.99
2018-03-28T01:28:14.668Z,85.28
2018-03-28T01:29:19.181Z,85.37
2018-03-28T01:30:18.879Z,85.37
2018-03-28T01:31:26.567Z,85.18
2018-03-28T01:32:39.271Z,85.08
2018-03-28T01:34:56.596Z,85.18
2018-03-28T01:35:52.193Z,85.08
2018-03-28T01:36:55.272Z,85.08
2018-03-28T01:38:06.136Z,85.18
2018-03-28T01:39:08.907Z,85.18
2018-03-28T01:40:18.129Z,85.08
2018-03-28T01:41:19.980Z,85.08
2018-03-28T01:42:22.137Z,84.89
2018-03-28T01:43:39.652Z,84.89
2018-03-28T01:44:46.215Z,85.28
2018-03-28T01:45:39.157Z,85.28
2018-03-28T01:46:46.846Z,84.89
2018-03-28T01:49:01.092Z,85.56
2018-03-28T01:51:04.179Z,85.66
2018-03-28T01:52:15.242Z,85.75
2018-03-28T01:53:18.424Z,85.66
2018-03-28T01:54:25.804Z,85.75
2018-03-28T01:57:56.749Z,86.04
2018-03-28T01:59:54.715Z,85.75
2018-03-28T02:01:04.143Z,85.66
2018-03-28T02:02:03.031Z,85.85
2018-03-28T02:03:13.782Z,85.56
2018-03-28T02:05:19.332Z,86.32
2018-03-28T02:07:25.689Z,86.04
2018-03-28T02:08:43.207Z,86.51
2018-03-28T02:09:46.287Z,86.22
2018-03-28T02:10:45.883Z,86.22
2018-03-28T02:12:00.535Z,86.51
2018-03-28T02:12:59.926Z,86.32
2018-03-28T02:14:11.096Z,86.22
2018-03-28T02:15:08.440Z,86.42
2018-03-28T02:16:09.579Z,86.51
2018-03-28T02:17:16.133Z,86.42
2018-03-28T02:18:26.793Z,86.42
2018-03-28T02:19:33.657Z,86.42
2018-03-28T02:20:37.966Z,86.22
2018-03-28T02:21:44.118Z,86.32
2018-03-28T02:22:48.528Z,86.22
2018-03-28T02:23:49.873Z,86.22
2018-03-28T02:25:09.942Z,86.22
2018-03-28T02:26:08.006Z,86.51
2018-03-28T02:27:10.675Z,86.22
2018-03-28T02:28:28.806Z,86.22
2018-03-28T02:29:18.572Z,86.32
2018-03-28T02:30:25.646Z,86.42
2018-03-28T02:31:31.290Z,86.32
2018-03-28T02:32:46.754Z,86.51
2018-03-28T02:33:49.017Z,86.22
2018-03-28T02:34:57.416Z,86.32
2018-03-28T02:35:54.357Z,86.70
2018-03-28T02:38:14.641Z,86.70
2018-03-28T02:39:14.343Z,86.70
2018-03-28T02:40:29.607Z,86.70
2018-03-28T02:41:14.560Z,86.70
2018-03-28T02:42:23.783Z,86.90
2018-03-28T02:43:44.683Z,86.51
2018-03-28T02:45:44.184Z,86.04
2018-03-28T02:47:59.248Z,85.94
2018-03-28T02:49:08.985Z,85.85
2018-03-28T02:50:06.124Z,85.80
2018-03-28T02:51:12.994Z,85.99
2018-03-28T02:52:12.080Z,86.22
2018-03-28T02:53:33.793Z,85.66
2018-03-28T02:54:42.412Z,85.60
2018-03-28T02:55:31.146Z,85.80
2018-03-28T02:56:43.442Z,85.99
2018-03-28T02:58:00.444Z,85.99
2018-03-28T02:59:54.013Z,85.70
2018-03-28T03:01:05.592Z,85.99
2018-03-28T03:02:21.465Z,85.80
2018-03-28T03:03:12.769Z,85.99
2018-03-28T03:04:33.151Z,85.70
2018-03-28T03:05:38.588Z,85.99
2018-03-28T03:06:34.806Z,85.60
2018-03-28T03:07:45.056Z,85.51
2018-03-28T03:08:45.673Z,85.41
2018-03-28T03:11:06.269Z,85.80
2018-03-28T03:14:01.586Z,85.70
2018-03-28T03:15:10.086Z,85.80
2018-03-28T03:16:18.797Z,85.80
2018-03-28T03:18:35.299Z,85.60
2018-03-28T03:19:50.562Z,85.41
2018-03-28T03:21:56.215Z,85.89
2018-03-28T03:22:54.782Z,85.89
2018-03-28T03:24:03.399Z,85.80
2018-03-28T03:25:03.909Z,85.70
2018-03-28T03:26:08.530Z,85.70
2018-03-28T03:27:38.334Z,85.80
2018-03-28T03:28:23.898Z,85.70
2018-03-28T03:29:25.953Z,85.89
2018-03-28T03:30:37.738Z,85.80
2018-03-28T03:31:49.519Z,85.80
2018-03-28T03:32:40.617Z,85.60
2018-03-28T03:33:54.860Z,85.99
2018-03-28T03:36:01.324Z,85.80
2018-03-28T03:37:12.394Z,85.70
2018-03-28T03:38:17.415Z,85.80
2018-03-28T03:39:33.710Z,85.89
2018-03-28T03:40:32.584Z,85.99
2018-03-28T03:43:03.318Z,85.99
2018-03-28T03:43:42.537Z,85.99
2018-03-28T03:44:36.298Z,85.99
2018-03-28T03:46:08.151Z,85.60
2018-03-28T03:47:15.021Z,85.60
2018-03-28T03:48:04.175Z,85.70
2018-03-28T03:50:17.301Z,85.70
2018-03-28T03:51:11.722Z,85.99
2018-03-28T03:53:48.854Z,85.80
2018-03-28T03:55:41.904Z,85.84
2018-03-28T03:57:15.500Z,85.46
2018-03-28T03:57:58.509Z,85.08
2018-03-28T03:59:07.423Z,84.88
2018-03-28T04:00:47.264Z,84.79
2018-03-28T04:01:20.646Z,84.84
2018-03-28T04:02:59.881Z,85.08
2018-03-28T04:04:26.197Z,84.79
2018-03-28T04:05:42.692Z,84.60
2018-03-28T04:07:03.383Z,85.08
2018-03-28T04:07:55.813Z,84.79
2018-03-28T04:09:35.245Z,84.88
2018-03-28T04:11:15.903Z,84.60
2018-03-28T04:12:11.918Z,85.17
2018-03-28T04:14:56.479Z,84.79
2018-03-28T04:15:47.779Z,84.60
2018-03-28T04:16:36.214Z,85.08
2018-03-28T04:18:58.592Z,84.79
2018-03-28T04:19:50.059Z,84.46
2018-03-28T04:21:06.244Z,84.98
2018-03-28T04:22:05.844Z,85.08
2018-03-28T04:24:21.524Z,84.94
2018-03-28T04:25:18.766Z,84.84
2018-03-28T04:27:58.922Z,84.46
2018-03-28T04:28:40.905Z,84.84
2018-03-28T04:29:52.492Z,84.46
2018-03-28T04:31:57.926Z,84.46
2018-03-28T04:32:56.406Z,85.51
2018-03-28T04:36:09.831Z,85.22
2018-03-28T04:37:21.514Z,85.32
2018-03-28T04:40:46.215Z,85.22
2018-03-28T04:41:42.019Z,85.32
2018-03-28T04:42:57.592Z,85.22
2018-03-28T04:43:58.008Z,85.32
2018-03-28T04:45:11.838Z,85.22
2018-03-28T04:46:13.591Z,84.94
2018-03-28T04:47:28.554Z,85.22
2018-03-28T04:48:25.079Z,85.22
2018-03-28T04:50:42.287Z,85.99
2018-03-28T04:51:44.548Z,86.18
2018-03-28T04:52:35.235Z,86.36
2018-03-28T04:55:11.807Z,86.03
2018-03-28T04:56:05.669Z,86.22
2018-03-28T04:57:18.171Z,85.74
2018-03-28T04:58:17.663Z,85.93
2018-03-28T05:00:11.022Z,85.27
2018-03-28T05:01:23.215Z,85.46
2018-03-28T05:02:34.896Z,85.36
2018-03-28T05:04:01.604Z,85.46
2018-03-28T05:05:55.295Z,84.98
2018-03-28T05:07:44.148Z,84.79
2018-03-28T05:09:33.919Z,84.69
2018-03-28T05:12:27.695Z,84.60
2018-03-28T05:13:41.730Z,84.79
2018-03-28T05:15:37.997Z,84.79
2018-03-28T05:17:23.022Z,84.60
2018-03-28T05:17:54.354Z,84.79
2018-03-28T05:19:13.919Z,84.69
2018-03-28T05:20:02.465Z,84.98
2018-03-28T05:21:15.368Z,84.60
2018-03-28T05:22:11.585Z,84.60
2018-03-28T05:23:35.555Z,85.08
2018-03-28T05:24:23.581Z,84.69
2018-03-28T05:26:40.080Z,84.94
2018-03-28T05:27:50.636Z,84.98
2018-03-28T05:29:56.792Z,84.69
2018-03-28T05:31:13.288Z,84.60
2018-03-28T05:32:20.368Z,84.60
2018-03-28T05:33:03.061Z,85.36
2018-03-28T05:34:27.234Z,84.84
2018-03-28T05:35:25.198Z,85.32
2018-03-28T05:37:54.703Z,85.27
2018-03-28T05:38:45.080Z,85.22
2018-03-28T05:40:09.459Z,84.56
2018-03-28T05:40:55.233Z,84.94
2018-03-28T05:41:55.964Z,85.32
2018-03-28T05:43:06.205Z,85.22
2018-03-28T05:44:10.832Z,84.94
2018-03-28T05:45:09.289Z,85.22
2018-03-28T05:46:16.771Z,84.94
2018-03-28T05:47:25.179Z,84.79
2018-03-28T05:51:47.730Z,85.22
2018-03-28T05:52:52.140Z,85.32
2018-03-28T05:54:57.074Z,85.03
2018-03-28T05:57:16.847Z,85.41
2018-03-28T05:58:41.531Z,85.60
2018-03-28T05:59:21.570Z,85.60
2018-03-28T06:01:46.673Z,85.60
2018-03-28T06:02:29.783Z,85.51
2018-03-28T06:03:52.630Z,85.60
2018-03-28T06:04:41.880Z,85.99
2018-03-28T06:06:10.151Z,85.99
2018-03-28T06:07:00.736Z,85.70
2018-03-28T06:09:36.797Z,85.70
2018-03-28T06:10:18.780Z,85.70
2018-03-28T06:11:39.781Z,85.99
2018-03-28T06:12:29.444Z,85.89
2018-03-28T06:14:15.022Z,85.70
2018-03-28T06:14:34.476Z,85.80
2018-03-28T06:15:51.892Z,85.70
2018-03-28T06:17:04.084Z,85.70
2018-03-28T06:19:21.403Z,85.80
2018-03-28T06:20:24.483Z,85.70
2018-03-28T06:21:32.479Z,85.89
2018-03-28T06:22:28.387Z,86.08
2018-03-28T06:24:53.089Z,85.80
2018-03-28T06:25:47.461Z,85.80
2018-03-28T06:26:46.232Z,85.89
2018-03-28T06:28:07.248Z,85.89
2018-03-28T06:29:35.398Z,86.08
2018-03-28T06:30:09.504Z,86.12
2018-03-28T06:31:30.088Z,86.18
2018-03-28T06:32:16.272Z,85.51
2018-03-28T06:33:22.013Z,86.18
2018-03-28T06:34:19.970Z,85.99
2018-03-28T06:35:31.959Z,86.08
2018-03-28T06:36:56.952Z,86.08
2018-03-28T06:38:00.953Z,86.46
2018-03-28T06:38:52.466Z,86.18
2018-03-28T06:39:50.625Z,85.99
2018-03-28T06:42:03.234Z,86.18
2018-03-28T06:44:14.721Z,86.46
2018-03-28T06:45:44.114Z,86.65
2018-03-28T06:46:29.580Z,86.84
2018-03-28T06:47:31.959Z,86.36
2018-03-28T06:49:50.386Z,86.65
2018-03-28T06:51:10.156Z,86.46
2018-03-28T06:51:57.673Z,85.99
2018-03-28T06:53:42.839Z,85.89
2018-03-28T06:54:21.134Z,86.46
2018-03-28T06:55:33.843Z,86.08
2018-03-28T06:57:07.539Z,86.18
2018-03-28T06:57:43.787Z,86.27
2018-03-28T06:58:35.603Z,86.08
2018-03-28T06:59:53.018Z,86.18
2018-03-28T07:01:42.177Z,86.60
2018-03-28T07:02:23.854Z,85.84
2018-03-28T07:03:11.885Z,85.84
2018-03-28T07:05:31.567Z,85.93
2018-03-28T07:06:32.585Z,85.55
2018-03-28T07:07:30.449Z,85.93
2018-03-28T07:09:05.165Z,85.80
2018-03-28T07:10:08.139Z,85.84
2018-03-28T07:10:44.801Z,85.84
2018-03-28T07:12:58.742Z,85.74
2018-03-28T07:14:08.678Z,86.03
2018-03-28T07:15:29.166Z,86.51
2018-03-28T07:17:31.846Z,86.12
2018-03-28T07:19:45.476Z,86.12
2018-03-28T07:20:45.006Z,86.22
2018-03-28T07:21:56.857Z,86.60
2018-03-28T07:23:04.649Z,86.12
2018-03-28T07:23:57.486Z,85.84
2018-03-28T07:25:04.968Z,85.36
2018-03-28T07:26:00.984Z,84.88
2018-03-28T07:27:19.944Z,85.27
2018-03-28T07:28:35.198Z,84.41
2018-03-28T07:29:38.173Z,84.60
2018-03-28T07:31:47.506Z,85.27
2018-03-28T07:32:56.422Z,86.03
2018-03-28T07:33:59.397Z,84.88
2018-03-28T07:35:07.495Z,85.17
2018-03-28T07:36:15.182Z,84.88
2018-03-28T07:38:31.070Z,85.08
2018-03-28T07:39:21.861Z,85.46
2018-03-28T07:40:40.502Z,85.17
2018-03-28T07:41:53.206Z,84.98
2018-03-28T07:43:08.370Z,85.84
2018-03-28T07:43:37.450Z,85.46
2018-03-28T07:45:04.086Z,85.36
2018-03-28T07:45:54.776Z,85.17
2018-03-28T07:48:10.455Z,85.46
2018-03-28T07:49:12.507Z,85.27
2018-03-28T07:50:24.802Z,85.27
2018-03-28T07:51:45.598Z,84.88
2018-03-28T07:52:34.134Z,85.36
2018-03-28T07:53:36.496Z,85.17
2018-03-28T07:54:42.033Z,85.27
2018-03-28T07:55:45.836Z,85.17
2018-03-28T07:56:53.622Z,85.36
2018-03-28T07:58:10.736Z,85.36
2018-03-28T07:59:17.184Z,84.69
2018-03-28T08:00:04.300Z,84.88
2018-03-28T08:01:15.970Z,84.60
2018-03-28T08:02:24.989Z,85.17
2018-03-28T08:03:20.694Z,84.69
2018-03-28T08:04:24.902Z,84.83
2018-03-28T08:05:32.486Z,85.69
2018-03-28T08:07:37.210Z,84.64
2018-03-28T08:08:56.675Z,84.45
2018-03-28T08:10:51.575Z,84.83
2018-03-28T08:12:05.812Z,84.45
2018-03-28T08:13:10.637Z,84.26
2018-03-28T08:15:21.906Z,82.64
2018-03-28T08:16:20.274Z,82.64
2018-03-28T08:17:34.248Z,82.35
2018-03-28T08:18:41.176Z,82.83
2018-03-28T08:20:46.284Z,83.16
2018-03-28T08:21:48.469Z,83.16
2018-03-28T08:22:51.139Z,83.64
2018-03-28T08:24:01.388Z,82.30
2018-03-28T08:25:07.946Z,82.49
2018-03-28T08:26:12.355Z,82.87
2018-03-28T08:27:22.706Z,81.44
2018-03-28T08:28:34.999Z,82.01
2018-03-28T08:30:33.172Z,81.73
2018-03-28T08:31:46.899Z,81.82
2018-03-28T08:32:52.974Z,81.54
2018-03-28T08:34:01.455Z,81.73
2018-03-28T08:35:02.494Z,81.82
2018-03-28T08:36:06.694Z,81.44
2018-03-28T08:37:06.288Z,81.44
2018-03-28T08:38:12.336Z,80.96
2018-03-28T08:39:20.843Z,81.35
2018-03-28T08:40:32.628Z,80.87
2018-03-28T08:41:34.065Z,81.15
2018-03-28T08:42:42.471Z,81.25
2018-03-28T08:43:41.966Z,81.73
2018-03-28T08:46:03.687Z,81.73
2018-03-28T08:47:13.323Z,81.44
2018-03-28T08:48:02.884Z,81.63
2018-03-28T08:49:15.487Z,81.73
2018-03-28T08:50:16.824Z,81.25
2018-03-28T08:51:21.951Z,81.35
2018-03-28T08:53:36.813Z,81.25
2018-03-28T08:55:47.066Z,81.54
2018-03-28T08:56:45.537Z,81.54
2018-03-28T08:57:59.984Z,81.35
2018-03-28T08:58:56.714Z,80.87
2018-03-28T09:01:09.842Z,81.25
2018-03-28T09:02:26.536Z,81.73
2018-03-28T09:03:27.464Z,81.54
2018-03-28T09:05:35.976Z,81.06
2018-03-28T09:06:43.255Z,80.96
2018-03-28T09:07:38.856Z,80.96
2018-03-28T09:09:00.674Z,81.63
2018-03-28T09:09:50.032Z,80.96
2018-03-28T09:11:05.398Z,81.01
2018-03-28T09:12:03.562Z,81.01
2018-03-28T09:13:22.514Z,81.01
2018-03-28T09:14:12.999Z,81.01
2018-03-28T09:15:25.292Z,80.53
2018-03-28T09:16:35.031Z,80.33
2018-03-28T09:18:49.890Z,80.62
2018-03-28T09:19:53.789Z,78.28
2018-03-28T09:20:52.981Z,78.66
2018-03-28T09:22:03.535Z,78.47
2018-03-28T09:23:11.934Z,78.09
2018-03-28T09:24:13.272Z,78.56
2018-03-28T09:26:27.725Z,77.23
2018-03-28T09:27:23.943Z,76.46
2018-03-28T09:28:38.490Z,77.70
2018-03-28T09:29:38.089Z,78.03
2018-03-28T09:31:47.527Z,77.45
2018-03-28T09:33:01.558Z,76.21
2018-03-28T09:35:19.699Z,75.54
2018-03-28T09:36:16.121Z,75.74
2018-03-28T09:37:20.738Z,75.26
2018-03-28T09:38:25.149Z,74.59
2018-03-28T09:40:48.712Z,74.69
2018-03-28T09:41:39.708Z,74.78
2018-03-28T09:43:00.603Z,74.40
2018-03-28T09:44:03.688Z,74.88
2018-03-28T09:44:57.648Z,74.55
2018-03-28T09:45:59.396Z,73.98
2018-03-28T09:47:35.457Z,73.83
2018-03-28T09:48:16.513Z,73.88
2018-03-28T09:49:36.179Z,73.79
2018-03-28T09:50:30.861Z,72.64
2018-03-28T09:51:31.789Z,74.08
2018-03-28T09:52:32.720Z,75.13
2018-03-28T09:53:50.440Z,74.46
2018-03-28T09:57:21.899Z,74.46
2018-03-28T09:57:57.841Z,74.49
2018-03-28T09:58:58.061Z,74.69
2018-03-28T10:00:47.421Z,73.54
2018-03-28T10:01:32.678Z,73.35
2018-03-28T10:02:27.565Z,71.98
2018-03-28T10:03:36.075Z,71.88
2018-03-28T10:04:43.146Z,72.07
2018-03-28T10:05:40.080Z,72.64
2018-03-28T10:07:02.824Z,72.64
2018-03-28T10:07:55.761Z,72.64
2018-03-28T10:09:11.062Z,72.64
2018-03-28T10:10:34.797Z,73.41
2018-03-28T10:11:34.296Z,73.41
2018-03-28T10:12:31.332Z,72.55
2018-03-28T10:13:30.818Z,72.17
2018-03-28T10:14:44.443Z,72.55
2018-03-28T10:16:42.204Z,72.26
2018-03-28T10:17:50.097Z,72.93
2018-03-28T10:18:46.828Z,73.32
2018-03-28T10:20:04.754Z,73.60
2018-03-28T10:21:08.144Z,73.79
2018-03-28T10:22:03.130Z,72.83
2018-03-28T10:26:53.232Z,72.45
2018-03-28T10:27:37.062Z,71.21
2018-03-28T10:30:52.143Z,72.55
2018-03-28T10:32:02.389Z,71.98
2018-03-28T10:32:50.510Z,71.31
2018-03-28T10:34:17.652Z,71.88
2018-03-28T10:36:22.274Z,72.17
2018-03-28T10:38:25.158Z,72.93
2018-03-28T10:39:30.488Z,72.64
2018-03-28T10:40:44.629Z,72.93
2018-03-28T10:41:36.854Z,72.36
2018-03-28T10:42:58.369Z,73.03
2018-03-28T10:43:53.354Z,72.93
2018-03-28T10:46:05.348Z,72.83
2018-03-28T10:48:12.937Z,73.69
2018-03-28T10:49:27.996Z,73.41
2018-03-28T10:50:35.585Z,72.93
2018-03-28T10:51:38.358Z,72.36
2018-03-28T10:52:49.117Z,72.55
2018-03-28T10:53:41.644Z,73.41
2018-03-28T10:54:52.406Z,73.50
2018-03-28T10:55:55.997Z,72.71
2018-03-28T10:57:07.881Z,72.71
2018-03-28T10:58:10.657Z,72.99
2018-03-28T10:59:11.788Z,72.89
2018-03-28T11:01:25.422Z,72.99
2018-03-28T11:02:25.324Z,73.08
2018-03-28T11:03:35.979Z,73.28
2018-03-28T11:04:52.167Z,73.47
2018-03-28T11:05:41.834Z,73.66
2018-03-28T11:07:01.201Z,74.04
2018-03-28T11:09:19.542Z,74.42
2018-03-28T11:09:59.061Z,74.42
2018-03-28T11:11:07.573Z,73.56
2018-03-28T11:12:14.436Z,74.04
2018-03-28T11:13:21.202Z,74.32
2018-03-28T11:15:32.173Z,74.23
2018-03-28T11:16:34.742Z,74.13
2018-03-28T11:17:40.796Z,74.52
2018-03-28T11:19:00.660Z,74.13
2018-03-28T11:21:09.592Z,74.52
2018-03-28T11:23:24.445Z,74.80
2018-03-28T11:24:18.310Z,74.99
2018-03-28T11:25:22.206Z,75.95
2018-03-28T11:27:37.076Z,75.47
2018-03-28T11:28:32.775Z,75.95
2018-03-28T11:29:55.515Z,75.66
2018-03-28T11:30:48.252Z,75.57
2018-03-28T11:33:02.498Z,75.28
2018-03-28T11:34:05.372Z,75.47
2018-03-28T11:36:11.138Z,76.14
2018-03-28T11:37:23.833Z,76.42
2018-03-28T11:39:27.323Z,77.67
2018-03-28T11:40:41.880Z,76.71
2018-03-28T11:41:45.051Z,76.62
2018-03-28T11:42:49.975Z,76.62
2018-03-28T11:43:59.093Z,76.42
2018-03-28T11:46:05.258Z,76.42
2018-03-28T11:47:04.031Z,76.04
2018-03-28T11:48:13.970Z,76.04
2018-03-28T11:49:30.275Z,76.62
2018-03-28T11:50:22.695Z,76.62
2018-03-28T11:51:28.430Z,76.71
2018-03-28T11:52:33.351Z,76.62
2018-03-28T11:53:41.140Z,76.62
2018-03-28T11:54:54.566Z,76.08
2018-03-28T11:55:46.070Z,75.89
2018-03-28T11:56:59.188Z,75.03
2018-03-28T11:58:07.077Z,75.60
2018-03-28T11:59:16.504Z,75.42
2018-03-28T12:00:19.686Z,75.60
2018-03-28T12:02:40.395Z,75.51
2018-03-28T12:04:47.261Z,76.46
2018-03-28T12:05:52.796Z,76.46
2018-03-28T12:07:01.609Z,76.18
2018-03-28T12:08:02.640Z,75.42
2018-03-28T12:09:02.552Z,75.51
2018-03-28T12:09:58.669Z,75.70
2018-03-28T12:11:19.148Z,75.79
2018-03-28T12:12:24.171Z,75.42
2018-03-28T12:13:40.981Z,75.32
2018-03-28T12:14:23.268Z,75.51
2018-03-28T12:15:43.035Z,75.60
2018-03-28T12:16:39.563Z,76.18
2018-03-28T12:17:40.489Z,75.51
2018-03-28T12:18:49.612Z,75.70
2018-03-28T12:20:04.976Z,76.18
2018-03-28T12:21:01.096Z,75.42
2018-03-28T12:22:07.346Z,75.79
2018-03-28T12:23:12.064Z,75.98
2018-03-28T12:24:24.565Z,76.65
2018-03-28T12:25:31.943Z,76.65
2018-03-28T12:27:38.612Z,75.51
2018-03-28T12:32:09.260Z,75.98
2018-03-28T12:33:25.859Z,76.37
2018-03-28T12:34:03.848Z,76.75
2018-03-28T12:35:34.166Z,75.22
2018-03-28T12:38:38.692Z,75.70
2018-03-28T12:39:35.113Z,76.27
2018-03-28T12:40:52.846Z,75.60
2018-03-28T12:41:51.101Z,74.93
2018-03-28T12:43:07.908Z,74.74
2018-03-28T12:45:23.687Z,74.84
2018-03-28T12:46:18.059Z,75.22
2018-03-28T12:47:30.767Z,75.51
2018-03-28T12:48:42.344Z,75.79
2018-03-28T12:49:29.969Z,75.79
2018-03-28T12:50:38.875Z,76.75
2018-03-28T12:51:57.008Z,76.65
2018-03-28T12:52:49.847Z,76.65
2018-03-28T12:55:14.887Z,75.51
2018-03-28T12:55:58.265Z,75.98
2018-03-28T12:57:20.800Z,75.98
2018-03-28T12:59:27.276Z,75.79
2018-03-28T13:00:37.921Z,75.03
2018-03-28T13:01:34.038Z,75.42
2018-03-28T13:03:43.677Z,76.52
2018-03-28T13:07:01.823Z,75.42
2018-03-28T13:09:15.252Z,76.14
2018-03-28T13:10:06.359Z,76.75
2018-03-28T13:11:21.819Z,76.14
2018-03-28T13:12:28.901Z,76.14
2018-03-28T13:15:46.527Z,76.52
2018-03-28T13:16:51.762Z,76.42
2018-03-28T13:17:47.154Z,77.38
2018-03-28T13:19:10.918Z,77.86
2018-03-28T13:19:57.306Z,78.05
2018-03-28T13:21:03.867Z,77.67
2018-03-28T13:22:28.349Z,78.14
2018-03-28T13:25:26.219Z,79.00
2018-03-28T13:26:49.164Z,79.28
2018-03-28T13:27:37.496Z,79.38
2018-03-28T13:28:52.352Z,79.86
2018-03-28T13:30:00.967Z,79.48
2018-03-28T13:30:50.831Z,79.96
2018-03-28T13:32:12.752Z,79.86
2018-03-28T13:33:14.191Z,80.15
2018-03-28T13:34:04.061Z,80.62
2018-03-28T13:35:17.696Z,80.15
2018-03-28T13:36:41.247Z,80.62
2018-03-28T13:37:28.366Z,80.43
2018-03-28T13:39:51.098Z,80.05
2018-03-28T13:43:15.706Z,79.86
2018-03-28T13:44:01.571Z,80.24
2018-03-28T13:45:20.010Z,80.24
2018-03-28T13:46:07.523Z,80.15
2018-03-28T13:47:32.517Z,80.05
2018-03-28T13:48:25.873Z,80.24
2018-03-28T13:49:25.984Z,79.57
2018-03-28T13:50:36.437Z,80.24
2018-03-28T13:51:57.369Z,80.33
2018-03-28T13:52:48.525Z,80.72
2018-03-28T13:53:44.036Z,80.05
2018-03-28T13:54:54.274Z,79.53
2018-03-28T13:57:15.897Z,80.30
2018-03-28T13:57:57.265Z,80.68
2018-03-28T13:59:26.149Z,80.58
2018-03-28T14:00:11.827Z,80.96
2018-03-28T14:02:30.675Z,80.87
2018-03-28T14:03:43.596Z,81.35
2018-03-28T14:04:56.494Z,81.15
2018-03-28T14:06:06.848Z,81.54
2018-03-28T14:06:54.767Z,81.73
2018-03-28T14:08:00.714Z,81.54
2018-03-28T14:09:06.559Z,80.83
2018-03-28T14:10:12.914Z,80.68
2018-03-28T14:11:25.756Z,81.40
2018-03-28T14:12:36.172Z,81.15
2018-03-28T14:13:45.192Z,81.49
2018-03-28T14:15:41.313Z,81.59
2018-03-28T14:16:44.699Z,81.88
2018-03-28T14:17:49.724Z,82.45
2018-03-28T14:19:03.357Z,82.35
2018-03-28T14:20:04.280Z,82.73
2018-03-28T14:21:05.720Z,82.73
2018-03-28T14:22:20.984Z,82.73
2018-03-28T14:23:21.204Z,82.92
2018-03-28T14:25:33.600Z,83.40
2018-03-28T14:26:29.719Z,83.40
2018-03-28T14:27:53.583Z,83.78
2018-03-28T14:28:53.083Z,83.21
2018-03-28T14:30:03.531Z,83.50
2018-03-28T14:31:00.056Z,83.50
2018-03-28T14:33:01.309Z,83.97
2018-03-28T14:36:32.244Z,84.26
2018-03-28T14:37:37.473Z,84.55
2018-03-28T14:38:37.483Z,84.74
2018-03-28T14:40:43.331Z,84.69
2018-03-28T14:42:05.764Z,84.22
2018-03-28T14:43:12.121Z,84.69
2018-03-28T14:44:04.138Z,85.36
2018-03-28T14:45:11.495Z,85.36
2018-03-28T14:47:25.663Z,85.17
2018-03-28T14:51:46.586Z,82.79
2018-03-28T14:53:00.618Z,82.79
2018-03-28T14:54:07.997Z,83.45
2018-03-28T14:55:17.631Z,83.36
2018-03-28T14:57:26.246Z,83.07
2018-03-28T14:58:25.228Z,82.69
2018-03-28T14:59:17.249Z,82.41
2018-03-28T15:01:34.056Z,82.46
2018-03-28T15:02:37.034Z,83.41
2018-03-28T15:04:09.193Z,84.08
2018-03-28T15:06:18.018Z,84.94
2018-03-28T15:08:06.157Z,84.17
2018-03-28T15:09:19.676Z,84.56
2018-03-28T15:10:49.682Z,84.75
2018-03-28T15:13:32.295Z,84.46
2018-03-28T15:14:40.191Z,84.36
2018-03-28T15:15:45.111Z,84.46
2018-03-28T15:16:57.824Z,84.65
2018-03-28T15:17:51.168Z,85.03
2018-03-28T15:19:03.460Z,84.36
2018-03-28T15:19:58.962Z,85.03
2018-03-28T15:22:23.967Z,84.46
2018-03-28T15:23:18.541Z,84.65
2018-03-28T15:24:30.324Z,85.51
2018-03-28T15:25:36.067Z,85.13
2018-03-28T15:26:40.988Z,85.51
2018-03-28T15:27:42.840Z,85.41
2018-03-28T15:28:49.501Z,85.03
2018-03-28T15:29:56.472Z,85.60
2018-03-28T15:30:52.279Z,85.03
2018-03-28T15:32:11.544Z,85.32
2018-03-28T15:34:16.673Z,85.32
2018-03-28T15:35:19.035Z,84.75
2018-03-28T15:37:37.480Z,85.22
2018-03-28T15:38:40.970Z,84.94
2018-03-28T15:39:40.668Z,84.94
2018-03-28T15:40:47.741Z,85.13
2018-03-28T15:42:09.970Z,84.84
2018-03-28T15:42:58.301Z,85.03
2018-03-28T15:44:05.581Z,85.22
2018-03-28T15:47:30.078Z,85.13
2018-03-28T15:49:33.468Z,85.13
2018-03-28T15:50:39.013Z,85.13
2018-03-28T15:51:49.765Z,84.94
2018-03-28T15:52:49.576Z,84.94
2018-03-28T15:54:33.504Z,85.80
2018-03-28T15:55:08.832Z,85.13
2018-03-28T15:59:19.203Z,85.22
2018-03-28T16:00:27.913Z,85.13
2018-03-28T16:01:28.023Z,85.22
2018-03-28T16:03:20.870Z,85.03
2018-03-28T16:04:34.703Z,85.03
2018-03-28T16:05:11.154Z,85.13
2018-03-28T16:07:37.179Z,85.03
2018-03-28T16:08:47.137Z,84.56
2018-03-28T16:09:47.230Z,84.98
2018-03-28T16:10:54.963Z,85.03
2018-03-28T16:11:48.781Z,84.84
2018-03-28T16:13:03.168Z,85.22
2018-03-28T16:16:04.958Z,85.46
2018-03-28T16:17:24.755Z,84.36
2018-03-28T16:18:29.062Z,85.08
2018-03-28T16:19:33.374Z,84.56
2018-03-28T16:21:45.468Z,84.88
2018-03-28T16:22:40.970Z,84.88
2018-03-28T16:23:52.546Z,84.60
2018-03-28T16:25:09.451Z,84.94
2018-03-28T16:26:01.982Z,84.41
2018-03-28T16:27:31.583Z,84.69
2018-03-28T16:28:21.655Z,85.36
2018-03-28T16:29:42.763Z,85.17
2018-03-28T16:30:36.321Z,84.88
2018-03-28T16:31:32.941Z,85.08
2018-03-28T16:32:47.594Z,84.69
2018-03-28T16:33:46.686Z,85.03
2018-03-28T16:34:51.293Z,84.79
2018-03-28T16:36:09.323Z,85.08
2018-03-28T16:38:09.437Z,84.69
2018-03-28T16:41:33.217Z,85.17
2018-03-28T16:42:40.393Z,85.08
2018-03-28T16:44:37.643Z,84.84
2018-03-28T16:46:49.232Z,84.65
2018-03-28T16:47:57.323Z,84.36
2018-03-28T16:49:10.029Z,84.94
2018-03-28T16:50:11.263Z,84.75
2018-03-28T16:51:11.067Z,84.56
2018-03-28T16:53:27.872Z,85.41
2018-03-28T16:54:25.536Z,85.32
2018-03-28T16:55:38.637Z,85.22
2018-03-28T16:56:29.431Z,85.22
2018-03-28T16:57:45.819Z,85.27
2018-03-28T16:58:44.905Z,85.46
2018-03-28T17:00:10.716Z,85.46
2018-03-28T17:01:18.823Z,85.17
2018-03-28T17:03:12.377Z,85.27
2018-03-28T17:04:18.634Z,85.46
2018-03-28T17:05:29.390Z,85.08
2018-03-28T17:06:27.552Z,85.22
2018-03-28T17:08:33.199Z,85.84
2018-03-28T17:09:49.078Z,85.13
2018-03-28T17:10:48.584Z,85.36
2018-03-28T17:12:15.205Z,84.98